createdAt,value
2019-03-29T00:02:12.763Z,8.07
2019-03-29T00:04:42.676Z,9.00
2019-03-29T00:07:12.547Z,8.13
2019-03-29T00:09:42.421Z,7.27
2019-03-29T00:12:12.317Z,6.87
2019-03-29T00:14:42.357Z,6.30
2019-03-29T00:17:12.225Z,7.00
2019-03-29T00:19:42.110Z,7.27
2019-03-29T00:22:11.988Z,7.27
2019-03-29T00:24:41.865Z,7.63
2019-03-29T00:27:11.732Z,7.37
2019-03-29T00:29:41.616Z,8.13
2019-03-29T00:32:11.612Z,8.00
2019-03-29T00:34:42.063Z,7.83
2019-03-29T00:37:12.191Z,11.30
2019-03-29T00:39:42.078Z,8.43
2019-03-29T00:42:11.971Z,7.20
2019-03-29T00:44:41.852Z,7.30
2019-03-29T00:47:11.736Z,6.93
2019-03-29T00:52:25.387Z,9.40
2019-03-29T00:54:55.394Z,6.70
2019-03-29T00:57:25.646Z,6.70
2019-03-29T00:59:55.779Z,7.27
2019-03-29T01:02:25.978Z,7.03
2019-03-29T01:04:56.149Z,7.60
2019-03-29T01:07:26.236Z,6.87
2019-03-29T01:09:56.914Z,7.57
2019-03-29T01:12:27.220Z,8.40
2019-03-29T01:14:57.425Z,7.57
2019-03-29T01:17:27.469Z,7.27
2019-03-29T01:19:57.700Z,7.93
2019-03-29T01:22:27.828Z,9.47
2019-03-29T01:24:58.038Z,8.03
2019-03-29T01:27:28.165Z,9.10
2019-03-29T01:29:58.272Z,8.87
2019-03-29T01:32:28.296Z,7.97
2019-03-29T01:34:58.469Z,7.80
2019-03-29T01:37:28.926Z,7.07
2019-03-29T01:39:59.050Z,7.93
2019-03-29T01:42:29.146Z,7.13
2019-03-29T01:44:59.350Z,8.77
2019-03-29T01:47:30.042Z,8.50
2019-03-29T01:50:00.486Z,10.57
2019-03-29T01:52:31.652Z,9.27
2019-03-29T01:55:01.813Z,9.97
2019-03-29T01:57:32.250Z,9.70
2019-03-29T02:00:02.844Z,9.87
2019-03-29T02:02:32.958Z,10.63
2019-03-29T02:05:03.092Z,11.20
2019-03-29T02:07:33.210Z,10.73
2019-03-29T02:10:03.373Z,11.83
2019-03-29T02:12:33.990Z,11.50
2019-03-29T02:15:04.589Z,11.20
2019-03-29T02:17:34.719Z,11.23
2019-03-29T02:20:05.896Z,13.00
2019-03-29T02:22:36.960Z,13.50
2019-03-29T02:25:07.241Z,12.57
2019-03-29T02:27:37.449Z,13.83
2019-03-29T02:30:08.381Z,13.00
2019-03-29T02:32:38.521Z,14.03
2019-03-29T02:35:11.441Z,13.27
2019-03-29T02:37:41.312Z,13.20
2019-03-29T02:40:11.502Z,13.97
2019-03-29T02:42:42.919Z,14.57
2019-03-29T02:45:13.685Z,16.10
2019-03-29T02:47:43.871Z,13.77
2019-03-29T02:50:14.060Z,13.97
2019-03-29T02:52:46.986Z,15.17
2019-03-29T02:55:16.014Z,16.50
2019-03-29T02:57:46.209Z,14.93
2019-03-29T03:00:16.478Z,14.73
2019-03-29T03:02:46.648Z,14.37
2019-03-29T03:05:19.781Z,16.07
2019-03-29T03:07:49.864Z,15.63
2019-03-29T03:10:20.238Z,16.07
2019-03-29T03:12:50.326Z,15.77
2019-03-29T03:15:20.418Z,16.00
2019-03-29T03:17:50.432Z,16.40
2019-03-29T03:20:20.612Z,15.90
2019-03-29T03:22:51.473Z,17.40
2019-03-29T03:25:21.483Z,16.23
2019-03-29T03:27:51.584Z,16.27
2019-03-29T03:30:22.137Z,16.63
2019-03-29T03:32:52.231Z,15.83
2019-03-29T03:35:22.469Z,15.33
2019-03-29T03:37:52.635Z,14.47
2019-03-29T03:40:22.755Z,16.00
2019-03-29T03:42:53.075Z,16.67
2019-03-29T03:45:23.187Z,17.40
2019-03-29T03:47:53.383Z,17.03
2019-03-29T03:50:39.621Z,17.47
2019-03-29T03:53:10.141Z,17.87
2019-03-29T03:55:40.794Z,19.90
2019-03-29T03:58:12.020Z,18.07
2019-03-29T04:01:00.706Z,18.37
2019-03-29T04:03:30.742Z,18.73
2019-03-29T04:06:00.868Z,18.43
2019-03-29T04:08:30.999Z,18.70
2019-03-29T04:11:01.117Z,18.23
2019-03-29T04:13:31.329Z,19.63
2019-03-29T04:16:01.426Z,17.97
2019-03-29T04:18:31.697Z,19.23
2019-03-29T04:21:01.764Z,18.73
2019-03-29T04:23:31.862Z,17.90
2019-03-29T04:26:02.058Z,19.80
2019-03-29T04:28:32.207Z,17.37
2019-03-29T04:31:02.398Z,19.70
2019-03-29T04:33:32.535Z,21.00
2019-03-29T04:36:02.650Z,19.97
2019-03-29T04:38:32.707Z,19.33
2019-03-29T04:41:03.084Z,17.60
2019-03-29T04:43:33.147Z,20.43
2019-03-29T04:46:03.247Z,20.53
2019-03-29T04:48:33.365Z,20.17
2019-03-29T04:51:03.508Z,20.77
2019-03-29T04:53:33.594Z,16.73
2019-03-29T04:56:03.628Z,21.00
2019-03-29T04:58:33.765Z,19.20
2019-03-29T05:01:03.938Z,21.03
2019-03-29T05:03:34.077Z,20.40
2019-03-29T05:06:04.186Z,21.67
2019-03-29T05:08:34.223Z,18.47
2019-03-29T05:11:04.335Z,19.73
2019-03-29T05:13:34.438Z,19.70
2019-03-29T05:16:04.642Z,20.47
2019-03-29T05:18:34.674Z,19.90
2019-03-29T05:21:04.890Z,20.97
2019-03-29T05:23:34.992Z,20.27
2019-03-29T05:26:05.102Z,20.20
2019-03-29T05:28:35.236Z,23.73
2019-03-29T05:31:05.377Z,21.30
2019-03-29T05:33:35.415Z,20.50
2019-03-29T05:36:05.598Z,17.37
2019-03-29T05:38:35.726Z,17.53
2019-03-29T05:41:05.963Z,18.83
2019-03-29T05:43:36.003Z,17.53
2019-03-29T05:46:06.195Z,18.07
2019-03-29T05:48:36.327Z,18.23
2019-03-29T05:51:06.445Z,16.00
2019-03-29T05:53:36.483Z,20.33
2019-03-29T05:56:07.490Z,19.73
2019-03-29T05:58:37.549Z,18.50
2019-03-29T06:01:07.654Z,18.60
2019-03-29T06:03:37.757Z,19.07
2019-03-29T06:06:07.873Z,20.80
2019-03-29T06:08:37.998Z,18.53
2019-03-29T06:11:08.106Z,20.00
2019-03-29T06:13:38.225Z,15.73
2019-03-29T06:16:08.325Z,20.27
2019-03-29T06:18:38.521Z,18.87
2019-03-29T06:21:08.618Z,18.43
2019-03-29T06:23:38.665Z,18.73
2019-03-29T06:26:08.760Z,18.40
2019-03-29T06:28:38.883Z,14.93
2019-03-29T06:31:09.073Z,17.13
2019-03-29T06:33:39.297Z,14.93
2019-03-29T06:36:10.419Z,15.07
2019-03-29T06:38:40.812Z,16.13
2019-03-29T06:41:10.928Z,17.40
2019-03-29T06:43:40.974Z,17.93
2019-03-29T06:46:11.007Z,16.40
2019-03-29T06:48:41.035Z,16.23
2019-03-29T06:51:11.129Z,23.90
2019-03-29T06:53:41.307Z,18.90
2019-03-29T06:56:11.448Z,19.23
2019-03-29T06:58:41.562Z,20.63
2019-03-29T07:01:11.720Z,15.00
2019-03-29T07:03:41.821Z,16.00
2019-03-29T07:06:11.945Z,14.27
2019-03-29T07:08:42.037Z,18.67
2019-03-29T07:11:17.570Z,13.70
2019-03-29T07:13:56.569Z,16.27
2019-03-29T07:16:15.701Z,14.27
2019-03-29T07:18:45.731Z,15.43
2019-03-29T07:21:21.751Z,13.97
2019-03-29T07:23:47.568Z,16.33
2019-03-29T07:26:17.607Z,12.93
2019-03-29T07:28:47.759Z,15.40
2019-03-29T07:31:17.987Z,15.93
2019-03-29T07:33:48.135Z,17.60
2019-03-29T07:36:18.334Z,18.70
2019-03-29T07:38:48.360Z,16.57
2019-03-29T07:41:30.993Z,18.70
2019-03-29T07:43:50.301Z,17.70
2019-03-29T07:46:20.507Z,14.87
2019-03-29T07:48:50.589Z,18.67
2019-03-29T07:51:20.707Z,17.50
2019-03-29T07:53:50.829Z,24.17
2019-03-29T07:56:20.951Z,17.33
2019-03-29T07:58:51.057Z,16.07
2019-03-29T08:01:21.065Z,15.83
2019-03-29T08:03:51.532Z,15.90
2019-03-29T08:06:22.612Z,17.70
2019-03-29T08:08:52.742Z,15.23
2019-03-29T08:11:26.452Z,16.07
2019-03-29T08:13:54.831Z,16.27
2019-03-29T08:16:24.881Z,15.40
2019-03-29T08:18:54.919Z,14.10
2019-03-29T08:21:24.985Z,12.90
2019-03-29T08:23:55.082Z,13.13
2019-03-29T08:26:25.055Z,18.70
2019-03-29T08:28:55.178Z,11.57
2019-03-29T08:31:25.250Z,14.10
2019-03-29T08:33:55.458Z,15.37
2019-03-29T08:36:25.666Z,13.87
2019-03-29T08:38:55.866Z,12.40
2019-03-29T08:41:25.992Z,12.60
2019-03-29T08:43:56.021Z,14.40
2019-03-29T08:46:26.211Z,15.00
2019-03-29T08:48:56.195Z,15.00
2019-03-29T08:51:26.242Z,15.97
2019-03-29T08:53:56.268Z,14.43
2019-03-29T08:56:26.418Z,13.57
2019-03-29T08:58:56.546Z,14.17
2019-03-29T09:01:26.770Z,12.90
2019-03-29T09:04:05.294Z,18.50
2019-03-29T09:06:30.332Z,14.03
2019-03-29T09:09:00.790Z,15.40
2019-03-29T09:11:31.037Z,14.63
2019-03-29T09:14:01.240Z,13.10
2019-03-29T09:17:05.214Z,12.63
2019-03-29T09:19:36.135Z,12.27
2019-03-29T09:22:06.194Z,12.00
2019-03-29T09:24:36.249Z,16.57
2019-03-29T09:27:06.313Z,13.23
2019-03-29T09:29:36.488Z,12.27
2019-03-29T09:32:06.579Z,11.87
2019-03-29T09:34:36.811Z,11.47
2019-03-29T09:37:06.944Z,12.43
2019-03-29T09:39:37.052Z,12.33
2019-03-29T09:42:09.615Z,12.27
2019-03-29T09:44:38.939Z,12.37
2019-03-29T09:47:09.009Z,12.13
2019-03-29T09:49:39.129Z,16.83
2019-03-29T09:52:09.325Z,15.80
2019-03-29T09:54:39.346Z,12.30
2019-03-29T09:57:10.222Z,15.57
2019-03-29T09:59:41.367Z,14.43
2019-03-29T10:02:11.517Z,13.17
2019-03-29T10:04:41.569Z,10.47
2019-03-29T10:07:11.584Z,10.73
2019-03-29T10:09:41.723Z,12.13
2019-03-29T10:12:13.605Z,13.40
2019-03-29T10:14:43.743Z,11.40
2019-03-29T10:17:13.870Z,9.40
2019-03-29T10:19:43.989Z,8.87
2019-03-29T10:22:14.120Z,8.53
2019-03-29T10:24:44.395Z,7.40
2019-03-29T10:27:14.545Z,7.80
2019-03-29T10:29:44.755Z,8.93
2019-03-29T10:32:14.901Z,9.33
2019-03-29T10:34:44.958Z,7.30
2019-03-29T10:37:15.070Z,9.80
2019-03-29T10:39:45.175Z,7.07
2019-03-29T10:42:15.325Z,9.70
2019-03-29T10:44:45.497Z,9.97
2019-03-29T10:47:15.642Z,9.67
2019-03-29T10:49:45.525Z,10.77
2019-03-29T10:52:15.436Z,9.00
2019-03-29T10:54:45.367Z,8.87
2019-03-29T10:57:15.366Z,8.40
2019-03-29T10:59:45.360Z,11.00
2019-03-29T11:02:15.248Z,12.70
2019-03-29T11:04:45.131Z,8.10
2019-03-29T11:07:15.752Z,11.47
2019-03-29T11:09:46.151Z,10.67
2019-03-29T11:12:16.428Z,11.03
2019-03-29T11:14:46.302Z,8.80
2019-03-29T11:17:16.203Z,9.97
2019-03-29T11:19:46.337Z,8.33
2019-03-29T11:22:16.236Z,9.07
2019-03-29T11:24:46.213Z,10.03
2019-03-29T11:27:16.161Z,12.43
2019-03-29T11:29:46.050Z,11.07
2019-03-29T11:32:15.972Z,10.40
2019-03-29T11:34:45.863Z,10.33
2019-03-29T11:37:15.831Z,10.17
2019-03-29T11:39:45.820Z,11.23
2019-03-29T11:42:15.777Z,8.97
2019-03-29T11:44:45.681Z,11.27
2019-03-29T11:47:15.565Z,9.73
2019-03-29T11:49:46.435Z,10.97
2019-03-29T11:52:16.332Z,11.43
2019-03-29T11:54:46.211Z,9.13
2019-03-29T11:57:16.101Z,10.83
2019-03-29T11:59:45.982Z,9.67
2019-03-29T12:02:30.207Z,10.80
2019-03-29T12:04:47.592Z,11.47
2019-03-29T12:07:17.486Z,12.40
2019-03-29T12:09:47.391Z,12.53
2019-03-29T12:12:17.375Z,8.93
2019-03-29T12:14:47.289Z,14.77
2019-03-29T12:17:17.173Z,10.70
2019-03-29T12:19:47.065Z,11.50
2019-03-29T12:22:16.968Z,10.10
2019-03-29T12:24:47.382Z,10.27
2019-03-29T12:27:17.268Z,10.23
2019-03-29T12:29:47.166Z,11.23
2019-03-29T12:32:17.064Z,12.57
2019-03-29T12:34:46.965Z,10.50
2019-03-29T12:37:16.863Z,9.73
2019-03-29T12:39:46.827Z,12.17
2019-03-29T12:42:16.822Z,11.17
2019-03-29T12:44:46.726Z,11.63
2019-03-29T12:47:16.626Z,11.63
2019-03-29T12:49:46.504Z,12.83
2019-03-29T12:52:16.511Z,12.17
2019-03-29T12:54:46.973Z,10.90
2019-03-29T12:57:16.875Z,11.00
2019-03-29T12:59:46.784Z,11.67
2019-03-29T13:02:17.819Z,11.30
2019-03-29T13:04:47.797Z,11.80
2019-03-29T13:07:17.770Z,12.27
2019-03-29T13:09:47.679Z,12.23
2019-03-29T13:12:17.652Z,9.43
2019-03-29T13:14:47.612Z,11.83
2019-03-29T13:17:17.461Z,10.73
2019-03-29T13:19:47.363Z,14.37
2019-03-29T13:22:17.438Z,12.47
2019-03-29T13:24:47.477Z,17.33
2019-03-29T13:27:17.353Z,13.73
2019-03-29T13:29:47.426Z,13.73
2019-03-29T13:32:17.332Z,13.90
2019-03-29T13:34:47.438Z,13.27
2019-03-29T13:37:18.329Z,10.83
2019-03-29T13:39:48.299Z,12.20
2019-03-29T13:42:18.197Z,11.27
2019-03-29T13:44:48.658Z,10.40
2019-03-29T13:47:18.544Z,10.70
2019-03-29T13:49:48.446Z,11.50
2019-03-29T13:52:18.328Z,11.43
2019-03-29T13:54:48.237Z,10.57
2019-03-29T13:57:18.126Z,11.60
2019-03-29T13:59:48.041Z,10.67
2019-03-29T14:02:17.955Z,10.03
2019-03-29T14:04:47.859Z,11.83
2019-03-29T14:07:17.769Z,9.80
2019-03-29T14:09:47.667Z,11.60
2019-03-29T14:12:17.549Z,9.90
2019-03-29T14:14:47.456Z,10.90
2019-03-29T14:17:17.416Z,11.53
2019-03-29T14:19:47.341Z,11.10
2019-03-29T14:22:17.239Z,10.90
2019-03-29T14:24:47.217Z,11.03
2019-03-29T14:27:17.128Z,11.90
2019-03-29T14:29:47.003Z,11.87
2019-03-29T14:32:16.899Z,10.67
2019-03-29T14:34:46.824Z,12.97
2019-03-29T14:37:16.715Z,11.30
2019-03-29T14:39:46.687Z,14.90
2019-03-29T14:42:16.740Z,11.60
2019-03-29T14:44:52.832Z,12.23
2019-03-29T14:47:18.313Z,13.53
2019-03-29T14:49:48.214Z,13.47
2019-03-29T14:52:18.114Z,12.50
2019-03-29T14:54:47.997Z,14.30
2019-03-29T14:57:17.892Z,13.60
2019-03-29T14:59:47.779Z,11.70
2019-03-29T15:02:17.672Z,12.27
2019-03-29T15:04:47.570Z,11.23
2019-03-29T15:07:17.468Z,14.57
2019-03-29T15:09:47.762Z,11.57
2019-03-29T15:12:17.667Z,12.37
2019-03-29T15:14:47.546Z,12.37
2019-03-29T15:17:17.437Z,11.43
2019-03-29T15:19:47.351Z,12.13
2019-03-29T15:22:17.253Z,11.27
2019-03-29T15:24:47.287Z,11.83
2019-03-29T15:27:17.183Z,21.47
2019-03-29T15:29:47.073Z,22.27
2019-03-29T15:32:16.960Z,15.23
2019-03-29T15:34:46.842Z,12.90
2019-03-29T15:37:16.748Z,26.70
2019-03-29T15:39:46.643Z,12.13
2019-03-29T15:42:16.530Z,12.37
2019-03-29T15:44:46.415Z,14.50
2019-03-29T15:47:16.353Z,11.63
2019-03-29T15:49:55.893Z,12.43
2019-03-29T15:52:17.811Z,12.13
2019-03-29T15:54:47.706Z,15.00
2019-03-29T15:57:17.607Z,12.50
2019-03-29T15:59:47.501Z,14.30
2019-03-29T16:02:17.406Z,14.63
2019-03-29T16:04:47.328Z,14.40
2019-03-29T16:07:17.216Z,12.30
2019-03-29T16:09:47.127Z,12.93
2019-03-29T16:12:17.028Z,12.90
2019-03-29T16:14:46.924Z,12.93
2019-03-29T16:17:17.128Z,15.03
2019-03-29T16:19:47.029Z,13.63
2019-03-29T16:22:17.278Z,15.30
2019-03-29T16:24:47.171Z,18.50
2019-03-29T16:27:17.086Z,14.50
2019-03-29T16:29:46.969Z,11.93
2019-03-29T16:32:16.860Z,12.60
2019-03-29T16:34:46.745Z,14.00
2019-03-29T16:37:16.670Z,12.33
2019-03-29T16:39:46.561Z,13.77
2019-03-29T16:42:16.469Z,13.90
2019-03-29T16:44:46.371Z,12.00
2019-03-29T16:47:16.312Z,10.97
2019-03-29T16:49:46.305Z,15.70
2019-03-29T16:52:16.290Z,13.20
2019-03-29T16:54:46.289Z,12.83
2019-03-29T16:57:16.190Z,17.27
2019-03-29T16:59:46.223Z,15.30
2019-03-29T17:02:16.513Z,13.37
2019-03-29T17:04:46.398Z,12.57
2019-03-29T17:07:16.296Z,11.63
2019-03-29T17:09:46.221Z,12.10
2019-03-29T17:12:16.124Z,11.73
2019-03-29T17:14:46.024Z,16.97
2019-03-29T17:17:15.927Z,14.63
2019-03-29T17:19:45.909Z,16.00
2019-03-29T17:22:15.813Z,13.10
2019-03-29T17:24:56.265Z,14.63
2019-03-29T17:27:17.340Z,14.73
2019-03-29T17:29:47.236Z,15.00
2019-03-29T17:32:17.123Z,13.13
2019-03-29T17:34:47.029Z,14.93
2019-03-29T17:37:17.158Z,14.70
2019-03-29T17:39:47.364Z,14.23
2019-03-29T17:42:17.473Z,11.90
2019-03-29T17:44:47.627Z,15.33
2019-03-29T17:47:17.686Z,17.43
2019-03-29T17:49:47.827Z,18.67
2019-03-29T17:52:17.994Z,19.87
2019-03-29T17:54:48.033Z,16.30
2019-03-29T17:57:18.154Z,17.27
2019-03-29T17:59:48.303Z,28.13
2019-03-29T18:02:18.707Z,26.87
2019-03-29T18:04:48.746Z,27.47
2019-03-29T18:07:18.877Z,23.97
2019-03-29T18:09:49.017Z,20.87
2019-03-29T18:12:19.045Z,20.83
2019-03-29T18:14:49.276Z,20.20
2019-03-29T18:17:19.324Z,19.87
2019-03-29T18:19:49.451Z,19.17
2019-03-29T18:22:19.567Z,19.90
2019-03-29T18:24:49.614Z,15.00
2019-03-29T18:27:19.770Z,20.90
2019-03-29T18:29:49.910Z,16.20
2019-03-29T18:32:20.662Z,20.33
2019-03-29T18:34:50.804Z,16.13
2019-03-29T18:37:21.897Z,18.90
2019-03-29T18:39:54.809Z,21.67
2019-03-29T18:42:23.910Z,21.47
2019-03-29T18:44:54.074Z,18.07
2019-03-29T18:47:24.244Z,19.37
2019-03-29T18:49:54.886Z,18.73
2019-03-29T18:52:25.306Z,17.23
2019-03-29T18:54:55.472Z,19.60
2019-03-29T18:57:25.590Z,17.87
2019-03-29T18:59:55.760Z,16.50
2019-03-29T19:02:25.957Z,21.07
2019-03-29T19:04:56.065Z,16.50
2019-03-29T19:07:29.940Z,17.23
2019-03-29T19:10:00.396Z,17.77
2019-03-29T19:12:30.543Z,18.70
2019-03-29T19:15:00.670Z,19.13
2019-03-29T19:17:30.854Z,20.43
2019-03-29T19:20:00.945Z,18.00
2019-03-29T19:22:31.180Z,23.20
2019-03-29T19:25:01.371Z,20.60
2019-03-29T19:27:31.564Z,24.23
2019-03-29T19:30:01.680Z,20.17
2019-03-29T19:32:31.807Z,18.23
2019-03-29T19:35:01.925Z,19.37
2019-03-29T19:37:32.051Z,17.60
2019-03-29T19:40:02.192Z,21.37
2019-03-29T19:42:32.340Z,26.47
2019-03-29T19:45:02.456Z,23.27
2019-03-29T19:47:32.589Z,26.20
2019-03-29T19:50:02.627Z,25.80
2019-03-29T19:52:32.762Z,23.43
2019-03-29T19:55:03.010Z,22.30
2019-03-29T19:57:33.219Z,26.70
2019-03-29T20:00:06.089Z,21.70
2019-03-29T20:02:35.434Z,25.03
2019-03-29T20:05:06.015Z,24.67
2019-03-29T20:07:36.114Z,27.63
2019-03-29T20:10:06.961Z,21.40
2019-03-29T20:12:37.071Z,21.83
2019-03-29T20:15:07.350Z,21.17
2019-03-29T20:17:37.394Z,20.90
2019-03-29T20:20:07.910Z,19.00
2019-03-29T20:22:38.024Z,20.87
2019-03-29T20:25:08.233Z,22.27
2019-03-29T20:27:38.356Z,17.87
2019-03-29T20:30:08.624Z,22.23
2019-03-29T20:32:38.657Z,20.37
2019-03-29T20:35:08.852Z,18.23
2019-03-29T20:37:39.052Z,18.93
2019-03-29T20:40:09.267Z,20.57
2019-03-29T20:42:39.389Z,21.00
2019-03-29T20:45:09.811Z,18.13
2019-03-29T20:47:42.410Z,18.93
2019-03-29T20:50:11.889Z,22.50
2019-03-29T20:52:42.079Z,19.13
2019-03-29T20:55:12.283Z,21.87
2019-03-29T20:57:42.399Z,19.73
2019-03-29T21:00:14.500Z,19.63
2019-03-29T21:02:44.649Z,20.33
2019-03-29T21:05:14.856Z,20.53
2019-03-29T21:07:44.982Z,19.53
2019-03-29T21:10:15.772Z,22.27
2019-03-29T21:12:46.055Z,23.63
2019-03-29T21:15:16.120Z,24.50
2019-03-29T21:17:56.786Z,19.43
2019-03-29T21:20:18.221Z,23.07
2019-03-29T21:22:50.970Z,23.43
2019-03-29T21:25:20.246Z,23.53
2019-03-29T21:27:50.357Z,22.07
2019-03-29T21:30:20.555Z,23.60
2019-03-29T21:32:50.587Z,23.23
2019-03-29T21:35:20.647Z,24.87
2019-03-29T21:37:50.857Z,27.03
2019-03-29T21:40:21.324Z,20.70
2019-03-29T21:42:51.496Z,21.53
2019-03-29T21:45:28.475Z,18.93
2019-03-29T21:50:35.842Z,22.17
2019-03-29T21:53:05.790Z,23.33
2019-03-29T21:55:35.662Z,24.00
2019-03-29T21:58:05.604Z,23.00
2019-03-29T22:00:35.512Z,21.80
2019-03-29T22:03:05.463Z,23.87
2019-03-29T22:05:35.333Z,25.17
2019-03-29T22:08:06.026Z,25.73
2019-03-29T22:10:35.895Z,25.47
2019-03-29T22:13:05.854Z,25.70
2019-03-29T22:15:35.724Z,29.90
2019-03-29T22:18:07.007Z,27.63
2019-03-29T22:20:37.023Z,26.33
2019-03-29T22:23:06.901Z,25.20
2019-03-29T22:25:36.763Z,22.53
2019-03-29T22:28:06.645Z,22.07
2019-03-29T22:30:36.526Z,22.00
2019-03-29T22:33:06.459Z,23.87
2019-03-29T22:35:36.397Z,26.20
2019-03-29T22:38:06.354Z,56.27
2019-03-29T22:40:36.231Z,29.77
2019-03-29T22:43:07.585Z,28.80
2019-03-29T22:45:37.573Z,29.90
2019-03-29T22:48:07.532Z,27.77
2019-03-29T22:50:37.397Z,25.13
2019-03-29T22:53:07.272Z,25.20
2019-03-29T22:55:37.149Z,22.10
2019-03-29T22:58:07.027Z,24.90
2019-03-29T23:00:42.094Z,25.50
2019-03-29T23:03:12.148Z,27.57
2019-03-29T23:05:42.095Z,27.67
2019-03-29T23:08:12.038Z,27.97
2019-03-29T23:10:41.917Z,20.73
2019-03-29T23:13:11.796Z,23.57
2019-03-29T23:15:41.681Z,26.80
2019-03-29T23:18:11.567Z,28.27
2019-03-29T23:20:41.440Z,24.57
2019-03-29T23:23:11.318Z,25.37
2019-03-29T23:25:41.192Z,22.27
2019-03-29T23:28:11.417Z,23.70
2019-03-29T23:30:41.295Z,27.33
2019-03-29T23:33:11.183Z,28.10
2019-03-29T23:35:41.058Z,24.77
2019-03-29T23:38:11.020Z,26.43
2019-03-29T23:40:40.896Z,26.33
2019-03-29T23:43:10.779Z,29.87
2019-03-29T23:45:40.643Z,26.03
2019-03-29T23:48:10.533Z,29.30
2019-03-29T23:50:40.401Z,26.03
2019-03-29T23:53:10.284Z,24.93
2019-03-29T23:55:40.209Z,21.37
2019-03-29T23:58:10.096Z,23.47
